sensor_id;sensor_type;location;lat;lon;timestamp;temperature;humidity
13229;DHT22;6680;53.220;10.402;2022-08-01T00:02:11;18.80;99.90
13229;DHT22;6680;53.220;10.402;2022-08-01T00:04:38;18.80;99.90
13229;DHT22;6680;53.220;10.402;2022-08-01T00:07:05;18.80;99.90
13229;DHT22;6680;53.220;10.402;2022-08-01T00:09:31;18.80;99.90
13229;DHT22;6680;53.220;10.402;2022-08-01T00:11:58;18.80;99.90
13229;DHT22;6680;53.220;10.402;2022-08-01T00:14:25;18.80;99.90
13229;DHT22;6680;53.220;10.402;2022-08-01T00:16:53;18.80;99.90
13229;DHT22;6680;53.220;10.402;2022-08-01T00:19:19;18.80;99.90
13229;DHT22;6680;53.220;10.402;2022-08-01T00:21:46;18.90;99.90
13229;DHT22;6680;53.220;10.402;2022-08-01T00:24:13;18.80;99.90
13229;DHT22;6680;53.220;10.402;2022-08-01T00:26:39;18.80;99.90
13229;DHT22;6680;53.220;10.402;2022-08-01T00:29:06;18.80;99.90
13229;DHT22;6680;53.220;10.402;2022-08-01T00:31:33;18.80;99.90
13229;DHT22;6680;53.220;10.402;2022-08-01T00:34:01;18.70;99.90
13229;DHT22;6680;53.220;10.402;2022-08-01T00:36:28;18.70;99.90
13229;DHT22;6680;53.220;10.402;2022-08-01T00:38:54;18.60;99.90
13229;DHT22;6680;53.220;10.402;2022-08-01T00:41:21;18.50;99.90
13229;DHT22;6680;53.220;10.402;2022-08-01T00:43:48;18.60;99.90
13229;DHT22;6680;53.220;10.402;2022-08-01T00:46:14;18.50;99.90
13229;DHT22;6680;53.220;10.402;2022-08-01T00:48:41;18.50;99.90
13229;DHT22;6680;53.220;10.402;2022-08-01T00:51:09;18.60;99.90
13229;DHT22;6680;53.220;10.402;2022-08-01T00:53:37;18.40;99.90
13229;DHT22;6680;53.220;10.402;2022-08-01T00:56:04;18.50;99.90
13229;DHT22;6680;53.220;10.402;2022-08-01T00:58:31;18.50;99.90
13229;DHT22;6680;53.220;10.402;2022-08-01T01:00:58;18.50;99.90
13229;DHT22;6680;53.220;10.402;2022-08-01T01:03:25;18.50;99.90
13229;DHT22;6680;53.220;10.402;2022-08-01T01:05:59;18.60;99.90
13229;DHT22;6680;53.220;10.402;2022-08-01T01:08:34;18.60;99.90
13229;DHT22;6680;53.220;10.402;2022-08-01T01:11:08;18.60;99.90
13229;DHT22;6680;53.220;10.402;2022-08-01T01:13:41;18.60;99.90
13229;DHT22;6680;53.220;10.402;2022-08-01T01:16:13;18.60;99.90
13229;DHT22;6680;53.220;10.402;2022-08-01T01:18:44;18.60;99.90
13229;DHT22;6680;53.220;10.402;2022-08-01T01:21:37;18.60;99.90
13229;DHT22;6680;53.220;10.402;2022-08-01T01:24:17;18.60;99.90
13229;DHT22;6680;53.220;10.402;2022-08-01T01:26:51;18.60;99.90
13229;DHT22;6680;53.220;10.402;2022-08-01T01:29:23;18.60;99.90
13229;DHT22;6680;53.220;10.402;2022-08-01T01:31:54;18.60;99.90
13229;DHT22;6680;53.220;10.402;2022-08-01T01:34:23;18.60;99.90
13229;DHT22;6680;53.220;10.402;2022-08-01T01:36:52;18.60;99.90
13229;DHT22;6680;53.220;10.402;2022-08-01T01:39:20;18.60;99.90
13229;DHT22;6680;53.220;10.402;2022-08-01T01:41:48;18.60;99.90
13229;DHT22;6680;53.220;10.402;2022-08-01T01:44:16;18.60;99.90
13229;DHT22;6680;53.220;10.402;2022-08-01T01:46:45;18.70;99.90
13229;DHT22;6680;53.220;10.402;2022-08-01T01:49:12;18.70;99.90
13229;DHT22;6680;53.220;10.402;2022-08-01T01:51:41;18.70;99.90
13229;DHT22;6680;53.220;10.402;2022-08-01T01:54:09;18.60;99.90
13229;DHT22;6680;53.220;10.402;2022-08-01T01:56:36;18.60;99.90
13229;DHT22;6680;53.220;10.402;2022-08-01T01:59:15;18.50;99.90
13229;DHT22;6680;53.220;10.402;2022-08-01T02:01:47;18.50;99.90
13229;DHT22;6680;53.220;10.402;2022-08-01T02:04:14;18.50;99.90
13229;DHT22;6680;53.220;10.402;2022-08-01T02:06:43;18.60;99.90
13229;DHT22;6680;53.220;10.402;2022-08-01T02:09:11;18.50;99.90
13229;DHT22;6680;53.220;10.402;2022-08-01T02:11:38;18.50;99.90
13229;DHT22;6680;53.220;10.402;2022-08-01T02:14:07;18.50;99.90
13229;DHT22;6680;53.220;10.402;2022-08-01T02:16:35;18.60;99.90
13229;DHT22;6680;53.220;10.402;2022-08-01T02:19:04;18.50;99.90
13229;DHT22;6680;53.220;10.402;2022-08-01T02:21:37;18.50;99.90
13229;DHT22;6680;53.220;10.402;2022-08-01T02:24:12;18.50;99.90
13229;DHT22;6680;53.220;10.402;2022-08-01T02:26:43;18.50;99.90
13229;DHT22;6680;53.220;10.402;2022-08-01T02:29:13;18.40;99.90
13229;DHT22;6680;53.220;10.402;2022-08-01T02:31:41;18.50;99.90
13229;DHT22;6680;53.220;10.402;2022-08-01T02:34:15;18.40;99.90
13229;DHT22;6680;53.220;10.402;2022-08-01T02:36:44;18.50;99.90
13229;DHT22;6680;53.220;10.402;2022-08-01T02:39:14;18.40;99.90
13229;DHT22;6680;53.220;10.402;2022-08-01T02:41:43;18.40;99.90
13229;DHT22;6680;53.220;10.402;2022-08-01T02:44:16;18.40;99.90
13229;DHT22;6680;53.220;10.402;2022-08-01T02:46:50;18.40;99.90
13229;DHT22;6680;53.220;10.402;2022-08-01T02:49:19;18.40;99.90
13229;DHT22;6680;53.220;10.402;2022-08-01T02:51:47;18.30;99.90
13229;DHT22;6680;53.220;10.402;2022-08-01T02:54:15;18.30;99.90
13229;DHT22;6680;53.220;10.402;2022-08-01T02:56:44;18.30;99.90
13229;DHT22;6680;53.220;10.402;2022-08-01T02:59:14;18.20;99.90
13229;DHT22;6680;53.220;10.402;2022-08-01T03:01:43;18.20;99.90
13229;DHT22;6680;53.220;10.402;2022-08-01T03:04:10;18.20;99.90
13229;DHT22;6680;53.220;10.402;2022-08-01T03:06:39;18.20;99.90
13229;DHT22;6680;53.220;10.402;2022-08-01T03:09:07;18.20;99.90
13229;DHT22;6680;53.220;10.402;2022-08-01T03:11:35;18.20;99.90
13229;DHT22;6680;53.220;10.402;2022-08-01T03:14:07;18.20;99.90
13229;DHT22;6680;53.220;10.402;2022-08-01T03:16:36;18.30;99.90
13229;DHT22;6680;53.220;10.402;2022-08-01T03:19:05;18.20;99.90
13229;DHT22;6680;53.220;10.402;2022-08-01T03:21:33;18.20;99.90
13229;DHT22;6680;53.220;10.402;2022-08-01T03:24:04;18.20;99.90
13229;DHT22;6680;53.220;10.402;2022-08-01T03:26:34;18.20;99.90
13229;DHT22;6680;53.220;10.402;2022-08-01T03:29:04;18.20;99.90
13229;DHT22;6680;53.220;10.402;2022-08-01T03:31:33;18.20;99.90
13229;DHT22;6680;53.220;10.402;2022-08-01T03:34:00;18.20;99.90
13229;DHT22;6680;53.220;10.402;2022-08-01T03:36:28;18.20;99.90
13229;DHT22;6680;53.220;10.402;2022-08-01T03:38:58;18.10;99.90
13229;DHT22;6680;53.220;10.402;2022-08-01T03:41:29;18.10;99.90
13229;DHT22;6680;53.220;10.402;2022-08-01T03:44:06;18.00;99.90
13229;DHT22;6680;53.220;10.402;2022-08-01T03:46:40;18.00;99.90
13229;DHT22;6680;53.220;10.402;2022-08-01T03:49:14;18.00;99.90
13229;DHT22;6680;53.220;10.402;2022-08-01T03:51:41;18.00;99.90
13229;DHT22;6680;53.220;10.402;2022-08-01T03:54:10;18.00;99.90
13229;DHT22;6680;53.220;10.402;2022-08-01T03:56:41;18.00;99.90
13229;DHT22;6680;53.220;10.402;2022-08-01T03:59:09;18.00;99.90
13229;DHT22;6680;53.220;10.402;2022-08-01T04:01:36;18.00;99.90
13229;DHT22;6680;53.220;10.402;2022-08-01T04:04:04;17.90;99.90
13229;DHT22;6680;53.220;10.402;2022-08-01T04:06:31;18.00;99.90
13229;DHT22;6680;53.220;10.402;2022-08-01T04:08:58;18.00;99.90
13229;DHT22;6680;53.220;10.402;2022-08-01T04:11:26;18.00;99.90
13229;DHT22;6680;53.220;10.402;2022-08-01T04:13:56;18.00;99.90
13229;DHT22;6680;53.220;10.402;2022-08-01T04:16:23;18.00;99.90
13229;DHT22;6680;53.220;10.402;2022-08-01T04:18:50;18.00;99.90
13229;DHT22;6680;53.220;10.402;2022-08-01T04:21:18;17.70;99.90
13229;DHT22;6680;53.220;10.402;2022-08-01T04:23:46;18.00;99.90
13229;DHT22;6680;53.220;10.402;2022-08-01T04:26:15;18.00;99.90
13229;DHT22;6680;53.220;10.402;2022-08-01T04:28:42;18.10;99.90
13229;DHT22;6680;53.220;10.402;2022-08-01T04:31:12;18.10;99.90
13229;DHT22;6680;53.220;10.402;2022-08-01T04:33:43;18.10;99.90
13229;DHT22;6680;53.220;10.402;2022-08-01T04:36:12;18.10;99.90
13229;DHT22;6680;53.220;10.402;2022-08-01T04:38:42;18.10;99.90
13229;DHT22;6680;53.220;10.402;2022-08-01T04:41:12;18.10;99.90
13229;DHT22;6680;53.220;10.402;2022-08-01T04:43:39;18.20;99.90
13229;DHT22;6680;53.220;10.402;2022-08-01T04:46:08;18.30;99.90
13229;DHT22;6680;53.220;10.402;2022-08-01T04:48:38;18.30;99.90
13229;DHT22;6680;53.220;10.402;2022-08-01T04:51:12;18.30;99.90
13229;DHT22;6680;53.220;10.402;2022-08-01T04:53:41;18.30;99.90
13229;DHT22;6680;53.220;10.402;2022-08-01T04:56:07;18.30;99.90
13229;DHT22;6680;53.220;10.402;2022-08-01T04:58:35;18.20;99.90
13229;DHT22;6680;53.220;10.402;2022-08-01T05:01:01;18.30;99.90
13229;DHT22;6680;53.220;10.402;2022-08-01T05:03:28;18.30;99.90
13229;DHT22;6680;53.220;10.402;2022-08-01T05:05:56;18.40;99.90
13229;DHT22;6680;53.220;10.402;2022-08-01T05:08:22;18.40;99.90
13229;DHT22;6680;53.220;10.402;2022-08-01T05:10:50;18.40;99.90
13229;DHT22;6680;53.220;10.402;2022-08-01T05:13:16;18.40;99.90
13229;DHT22;6680;53.220;10.402;2022-08-01T05:15:43;18.50;99.90
13229;DHT22;6680;53.220;10.402;2022-08-01T05:18:10;18.50;99.90
13229;DHT22;6680;53.220;10.402;2022-08-01T05:20:36;18.60;99.90
13229;DHT22;6680;53.220;10.402;2022-08-01T05:23:05;18.60;99.90
13229;DHT22;6680;53.220;10.402;2022-08-01T05:25:31;18.70;99.90
13229;DHT22;6680;53.220;10.402;2022-08-01T05:27:58;18.80;99.90
13229;DHT22;6680;53.220;10.402;2022-08-01T05:30:25;18.80;99.90
13229;DHT22;6680;53.220;10.402;2022-08-01T05:32:52;18.80;99.90
13229;DHT22;6680;53.220;10.402;2022-08-01T05:35:18;18.80;99.90
13229;DHT22;6680;53.220;10.402;2022-08-01T05:37:45;18.80;99.90
13229;DHT22;6680;53.220;10.402;2022-08-01T05:40:13;18.80;99.90
13229;DHT22;6680;53.220;10.402;2022-08-01T05:42:40;18.80;99.90
13229;DHT22;6680;53.220;10.402;2022-08-01T05:45:07;18.80;99.90
13229;DHT22;6680;53.220;10.402;2022-08-01T05:47:33;18.90;99.90
13229;DHT22;6680;53.220;10.402;2022-08-01T05:50:00;19.00;99.90
13229;DHT22;6680;53.220;10.402;2022-08-01T05:52:27;19.10;99.90
13229;DHT22;6680;53.220;10.402;2022-08-01T05:54:54;19.10;99.90
13229;DHT22;6680;53.220;10.402;2022-08-01T05:57:22;19.10;99.90
13229;DHT22;6680;53.220;10.402;2022-08-01T05:59:48;19.20;99.90
13229;DHT22;6680;53.220;10.402;2022-08-01T06:02:15;19.20;99.90
13229;DHT22;6680;53.220;10.402;2022-08-01T06:04:42;19.30;99.90
13229;DHT22;6680;53.220;10.402;2022-08-01T06:07:09;19.20;99.90
13229;DHT22;6680;53.220;10.402;2022-08-01T06:09:35;19.10;99.90
13229;DHT22;6680;53.220;10.402;2022-08-01T06:12:02;19.00;99.90
13229;DHT22;6680;53.220;10.402;2022-08-01T06:14:31;19.00;99.90
13229;DHT22;6680;53.220;10.402;2022-08-01T06:16:57;18.90;99.90
13229;DHT22;6680;53.220;10.402;2022-08-01T06:19:24;18.90;99.90
13229;DHT22;6680;53.220;10.402;2022-08-01T06:21:51;18.80;99.90
13229;DHT22;6680;53.220;10.402;2022-08-01T06:24:18;18.70;99.90
13229;DHT22;6680;53.220;10.402;2022-08-01T06:26:45;18.70;99.90
13229;DHT22;6680;53.220;10.402;2022-08-01T06:29:11;18.60;99.90
13229;DHT22;6680;53.220;10.402;2022-08-01T06:31:39;18.60;99.90
13229;DHT22;6680;53.220;10.402;2022-08-01T06:34:06;18.60;99.90
13229;DHT22;6680;53.220;10.402;2022-08-01T06:36:33;18.70;99.90
13229;DHT22;6680;53.220;10.402;2022-08-01T06:39:00;18.70;99.90
13229;DHT22;6680;53.220;10.402;2022-08-01T06:41:26;18.70;99.90
13229;DHT22;6680;53.220;10.402;2022-08-01T06:43:53;18.60;99.90
13229;DHT22;6680;53.220;10.402;2022-08-01T06:46:20;18.60;99.90
13229;DHT22;6680;53.220;10.402;2022-08-01T06:48:48;18.60;99.90
13229;DHT22;6680;53.220;10.402;2022-08-01T06:51:14;18.40;99.90
13229;DHT22;6680;53.220;10.402;2022-08-01T06:53:45;18.60;99.90
13229;DHT22;6680;53.220;10.402;2022-08-01T06:56:11;18.60;99.90
13229;DHT22;6680;53.220;10.402;2022-08-01T06:58:38;18.70;99.90
13229;DHT22;6680;53.220;10.402;2022-08-01T07:01:05;19.00;99.90
13229;DHT22;6680;53.220;10.402;2022-08-01T07:03:33;19.00;99.90
13229;DHT22;6680;53.220;10.402;2022-08-01T07:06:01;19.10;99.90
13229;DHT22;6680;53.220;10.402;2022-08-01T07:08:28;19.30;99.90
13229;DHT22;6680;53.220;10.402;2022-08-01T07:10:55;19.40;99.90
13229;DHT22;6680;53.220;10.402;2022-08-01T07:13:24;19.50;99.90
13229;DHT22;6680;53.220;10.402;2022-08-01T07:15:51;19.60;99.90
13229;DHT22;6680;53.220;10.402;2022-08-01T07:18:18;19.50;99.90
13229;DHT22;6680;53.220;10.402;2022-08-01T07:20:45;19.40;99.90
13229;DHT22;6680;53.220;10.402;2022-08-01T07:23:13;19.40;99.90
13229;DHT22;6680;53.220;10.402;2022-08-01T07:25:40;19.30;99.90
13229;DHT22;6680;53.220;10.402;2022-08-01T07:28:07;19.30;99.90
13229;DHT22;6680;53.220;10.402;2022-08-01T07:30:34;19.30;99.90
13229;DHT22;6680;53.220;10.402;2022-08-01T07:33:01;19.40;99.90
13229;DHT22;6680;53.220;10.402;2022-08-01T07:35:28;19.40;99.90
13229;DHT22;6680;53.220;10.402;2022-08-01T07:37:55;19.60;99.90
13229;DHT22;6680;53.220;10.402;2022-08-01T07:40:23;19.70;99.90
13229;DHT22;6680;53.220;10.402;2022-08-01T07:42:49;19.90;99.90
13229;DHT22;6680;53.220;10.402;2022-08-01T07:45:16;19.70;99.90
13229;DHT22;6680;53.220;10.402;2022-08-01T07:47:43;19.70;99.90
13229;DHT22;6680;53.220;10.402;2022-08-01T07:50:10;19.70;99.90
13229;DHT22;6680;53.220;10.402;2022-08-01T07:52:38;19.60;99.90
13229;DHT22;6680;53.220;10.402;2022-08-01T07:55:06;19.50;99.90
13229;DHT22;6680;53.220;10.402;2022-08-01T07:57:34;19.40;99.90
13229;DHT22;6680;53.220;10.402;2022-08-01T08:00:01;19.50;99.90
13229;DHT22;6680;53.220;10.402;2022-08-01T08:02:28;19.50;99.90
13229;DHT22;6680;53.220;10.402;2022-08-01T08:04:55;19.50;99.90
13229;DHT22;6680;53.220;10.402;2022-08-01T08:07:22;19.60;99.90
13229;DHT22;6680;53.220;10.402;2022-08-01T08:09:48;19.60;99.90
13229;DHT22;6680;53.220;10.402;2022-08-01T08:12:15;19.70;99.90
13229;DHT22;6680;53.220;10.402;2022-08-01T08:14:43;19.70;99.90
13229;DHT22;6680;53.220;10.402;2022-08-01T08:17:10;19.60;99.90
13229;DHT22;6680;53.220;10.402;2022-08-01T08:19:37;19.60;99.90
13229;DHT22;6680;53.220;10.402;2022-08-01T08:22:05;19.50;99.90
13229;DHT22;6680;53.220;10.402;2022-08-01T08:24:31;19.60;99.90
13229;DHT22;6680;53.220;10.402;2022-08-01T08:26:59;19.70;99.90
13229;DHT22;6680;53.220;10.402;2022-08-01T08:29:28;19.80;99.90
13229;DHT22;6680;53.220;10.402;2022-08-01T08:31:57;19.90;99.90
13229;DHT22;6680;53.220;10.402;2022-08-01T08:34:25;19.90;99.90
13229;DHT22;6680;53.220;10.402;2022-08-01T08:36:53;19.70;99.90
13229;DHT22;6680;53.220;10.402;2022-08-01T08:39:21;19.70;99.90
13229;DHT22;6680;53.220;10.402;2022-08-01T08:41:48;19.70;99.90
13229;DHT22;6680;53.220;10.402;2022-08-01T08:44:15;19.80;99.90
13229;DHT22;6680;53.220;10.402;2022-08-01T08:46:43;19.80;99.90
13229;DHT22;6680;53.220;10.402;2022-08-01T08:49:15;19.80;99.90
13229;DHT22;6680;53.220;10.402;2022-08-01T08:51:43;19.90;99.90
13229;DHT22;6680;53.220;10.402;2022-08-01T08:54:14;19.80;99.90
13229;DHT22;6680;53.220;10.402;2022-08-01T08:56:42;19.90;99.90
13229;DHT22;6680;53.220;10.402;2022-08-01T08:59:11;19.80;99.90
13229;DHT22;6680;53.220;10.402;2022-08-01T09:01:39;19.70;99.90
13229;DHT22;6680;53.220;10.402;2022-08-01T09:04:06;19.60;99.90
13229;DHT22;6680;53.220;10.402;2022-08-01T09:06:34;19.60;99.90
13229;DHT22;6680;53.220;10.402;2022-08-01T09:09:01;19.60;99.90
13229;DHT22;6680;53.220;10.402;2022-08-01T09:11:27;19.70;99.90
13229;DHT22;6680;53.220;10.402;2022-08-01T09:14:09;19.80;99.90
13229;DHT22;6680;53.220;10.402;2022-08-01T09:16:40;19.90;99.90
13229;DHT22;6680;53.220;10.402;2022-08-01T09:19:09;20.00;99.90
13229;DHT22;6680;53.220;10.402;2022-08-01T09:21:38;20.20;99.90
13229;DHT22;6680;53.220;10.402;2022-08-01T09:24:14;20.20;99.90
13229;DHT22;6680;53.220;10.402;2022-08-01T09:26:41;20.40;99.90
13229;DHT22;6680;53.220;10.402;2022-08-01T09:29:17;20.40;99.90
13229;DHT22;6680;53.220;10.402;2022-08-01T09:31:45;20.40;99.90
13229;DHT22;6680;53.220;10.402;2022-08-01T09:34:13;20.30;99.90
13229;DHT22;6680;53.220;10.402;2022-08-01T09:36:47;20.50;99.90
13229;DHT22;6680;53.220;10.402;2022-08-01T09:39:17;20.60;99.90
13229;DHT22;6680;53.220;10.402;2022-08-01T09:41:44;20.50;99.90
13229;DHT22;6680;53.220;10.402;2022-08-01T09:44:11;20.50;99.90
13229;DHT22;6680;53.220;10.402;2022-08-01T09:46:52;20.30;99.90
13229;DHT22;6680;53.220;10.402;2022-08-01T09:49:30;20.50;99.90
13229;DHT22;6680;53.220;10.402;2022-08-01T09:52:10;20.60;99.90
13229;DHT22;6680;53.220;10.402;2022-08-01T09:54:37;20.70;99.90
13229;DHT22;6680;53.220;10.402;2022-08-01T09:57:13;20.90;99.90
13229;DHT22;6680;53.220;10.402;2022-08-01T09:59:42;21.10;99.90
13229;DHT22;6680;53.220;10.402;2022-08-01T10:02:10;21.10;99.90
13229;DHT22;6680;53.220;10.402;2022-08-01T10:04:46;21.10;99.90
13229;DHT22;6680;53.220;10.402;2022-08-01T10:07:15;21.00;99.90
13229;DHT22;6680;53.220;10.402;2022-08-01T10:09:42;20.80;99.90
13229;DHT22;6680;53.220;10.402;2022-08-01T10:12:11;20.90;99.90
13229;DHT22;6680;53.220;10.402;2022-08-01T10:14:39;20.90;99.90
13229;DHT22;6680;53.220;10.402;2022-08-01T10:17:08;21.10;99.90
13229;DHT22;6680;53.220;10.402;2022-08-01T10:19:36;21.30;99.90
13229;DHT22;6680;53.220;10.402;2022-08-01T10:22:07;21.40;99.90
13229;DHT22;6680;53.220;10.402;2022-08-01T10:24:37;21.70;99.90
13229;DHT22;6680;53.220;10.402;2022-08-01T10:27:06;22.00;99.90
13229;DHT22;6680;53.220;10.402;2022-08-01T10:29:37;22.00;99.90
13229;DHT22;6680;53.220;10.402;2022-08-01T10:32:06;21.80;99.90
13229;DHT22;6680;53.220;10.402;2022-08-01T10:34:35;21.90;99.90
13229;DHT22;6680;53.220;10.402;2022-08-01T10:37:02;22.10;99.90
13229;DHT22;6680;53.220;10.402;2022-08-01T10:39:31;21.90;99.90
13229;DHT22;6680;53.220;10.402;2022-08-01T10:41:59;21.60;99.90
13229;DHT22;6680;53.220;10.402;2022-08-01T10:44:28;21.60;99.90
13229;DHT22;6680;53.220;10.402;2022-08-01T10:46:59;21.50;99.90
13229;DHT22;6680;53.220;10.402;2022-08-01T10:49:29;21.50;99.90
13229;DHT22;6680;53.220;10.402;2022-08-01T10:51:56;21.80;99.90
13229;DHT22;6680;53.220;10.402;2022-08-01T10:54:24;22.10;99.90
13229;DHT22;6680;53.220;10.402;2022-08-01T10:56:52;21.90;99.90
13229;DHT22;6680;53.220;10.402;2022-08-01T10:59:23;21.80;99.90
13229;DHT22;6680;53.220;10.402;2022-08-01T11:01:58;21.90;99.90
13229;DHT22;6680;53.220;10.402;2022-08-01T11:04:34;22.10;99.90
13229;DHT22;6680;53.220;10.402;2022-08-01T11:07:05;22.00;99.90
13229;DHT22;6680;53.220;10.402;2022-08-01T11:09:41;22.10;99.90
13229;DHT22;6680;53.220;10.402;2022-08-01T11:12:10;22.10;99.90
13229;DHT22;6680;53.220;10.402;2022-08-01T11:17:43;21.80;99.90
13229;DHT22;6680;53.220;10.402;2022-08-01T11:20:14;21.90;99.90
13229;DHT22;6680;53.220;10.402;2022-08-01T11:26:16;21.70;99.90
13229;DHT22;6680;53.220;10.402;2022-08-01T11:28:46;21.80;99.90
13229;DHT22;6680;53.220;10.402;2022-08-01T11:31:30;21.70;99.90
13229;DHT22;6680;53.220;10.402;2022-08-01T11:33:59;21.80;99.90
13229;DHT22;6680;53.220;10.402;2022-08-01T11:36:26;21.80;99.90
13229;DHT22;6680;53.220;10.402;2022-08-01T11:39:13;21.70;99.90
13229;DHT22;6680;53.220;10.402;2022-08-01T11:41:42;21.70;99.90
13229;DHT22;6680;53.220;10.402;2022-08-01T11:44:10;21.60;99.90
13229;DHT22;6680;53.220;10.402;2022-08-01T11:46:55;21.60;99.90
13229;DHT22;6680;53.220;10.402;2022-08-01T11:49:28;21.60;99.90
13229;DHT22;6680;53.220;10.402;2022-08-01T11:51:58;21.50;99.90
13229;DHT22;6680;53.220;10.402;2022-08-01T11:54:27;21.60;99.90
13229;DHT22;6680;53.220;10.402;2022-08-01T11:56:55;21.70;99.90
13229;DHT22;6680;53.220;10.402;2022-08-01T11:59:22;21.90;99.90
13229;DHT22;6680;53.220;10.402;2022-08-01T12:01:49;21.80;99.90
13229;DHT22;6680;53.220;10.402;2022-08-01T12:04:16;21.90;99.90
13229;DHT22;6680;53.220;10.402;2022-08-01T12:06:44;21.90;99.90
13229;DHT22;6680;53.220;10.402;2022-08-01T12:09:18;21.90;99.90
13229;DHT22;6680;53.220;10.402;2022-08-01T12:11:46;21.90;99.90
13229;DHT22;6680;53.220;10.402;2022-08-01T12:14:18;22.00;99.90
13229;DHT22;6680;53.220;10.402;2022-08-01T12:16:51;22.10;99.90
13229;DHT22;6680;53.220;10.402;2022-08-01T12:19:20;22.10;99.90
13229;DHT22;6680;53.220;10.402;2022-08-01T12:22:09;22.10;99.90
13229;DHT22;6680;53.220;10.402;2022-08-01T12:24:37;22.30;99.90
13229;DHT22;6680;53.220;10.402;2022-08-01T12:27:05;22.30;99.90
13229;DHT22;6680;53.220;10.402;2022-08-01T12:29:33;22.30;99.90
13229;DHT22;6680;53.220;10.402;2022-08-01T12:32:01;22.20;99.90
13229;DHT22;6680;53.220;10.402;2022-08-01T12:34:28;22.00;99.90
13229;DHT22;6680;53.220;10.402;2022-08-01T12:36:56;21.80;99.90
13229;DHT22;6680;53.220;10.402;2022-08-01T12:39:33;21.80;99.90
13229;DHT22;6680;53.220;10.402;2022-08-01T12:42:00;21.70;99.90
13229;DHT22;6680;53.220;10.402;2022-08-01T12:44:28;21.70;99.90
13229;DHT22;6680;53.220;10.402;2022-08-01T12:46:56;21.60;99.90
13229;DHT22;6680;53.220;10.402;2022-08-01T12:49:23;21.60;99.90
13229;DHT22;6680;53.220;10.402;2022-08-01T12:51:51;21.70;99.90
13229;DHT22;6680;53.220;10.402;2022-08-01T12:54:18;21.80;99.90
13229;DHT22;6680;53.220;10.402;2022-08-01T12:56:46;22.00;99.90
13229;DHT22;6680;53.220;10.402;2022-08-01T12:59:20;22.20;99.90
13229;DHT22;6680;53.220;10.402;2022-08-01T13:01:47;22.50;99.90
13229;DHT22;6680;53.220;10.402;2022-08-01T13:04:14;22.80;99.90
13229;DHT22;6680;53.220;10.402;2022-08-01T13:06:41;22.90;99.90
13229;DHT22;6680;53.220;10.402;2022-08-01T13:09:08;22.90;99.90
13229;DHT22;6680;53.220;10.402;2022-08-01T13:11:35;22.90;99.90
13229;DHT22;6680;53.220;10.402;2022-08-01T13:14:04;22.90;99.90
13229;DHT22;6680;53.220;10.402;2022-08-01T13:16:31;22.90;99.90
13229;DHT22;6680;53.220;10.402;2022-08-01T13:18:58;22.90;99.90
13229;DHT22;6680;53.220;10.402;2022-08-01T13:21:27;22.90;99.90
13229;DHT22;6680;53.220;10.402;2022-08-01T13:24:03;23.00;99.90
13229;DHT22;6680;53.220;10.402;2022-08-01T13:26:44;23.20;99.90
13229;DHT22;6680;53.220;10.402;2022-08-01T13:29:14;23.20;99.90
13229;DHT22;6680;53.220;10.402;2022-08-01T13:31:42;23.00;99.90
13229;DHT22;6680;53.220;10.402;2022-08-01T13:34:10;23.00;99.90
13229;DHT22;6680;53.220;10.402;2022-08-01T13:36:37;22.90;99.90
13229;DHT22;6680;53.220;10.402;2022-08-01T13:39:04;22.90;99.90
13229;DHT22;6680;53.220;10.402;2022-08-01T13:41:50;22.70;99.90
13229;DHT22;6680;53.220;10.402;2022-08-01T13:44:18;22.70;99.90
13229;DHT22;6680;53.220;10.402;2022-08-01T13:46:45;22.80;99.90
13229;DHT22;6680;53.220;10.402;2022-08-01T13:49:13;22.90;99.90
13229;DHT22;6680;53.220;10.402;2022-08-01T13:51:40;22.80;99.90
13229;DHT22;6680;53.220;10.402;2022-08-01T13:54:06;22.80;99.90
13229;DHT22;6680;53.220;10.402;2022-08-01T13:56:33;22.70;99.90
13229;DHT22;6680;53.220;10.402;2022-08-01T13:59:00;22.70;99.90
13229;DHT22;6680;53.220;10.402;2022-08-01T14:01:28;22.80;99.90
13229;DHT22;6680;53.220;10.402;2022-08-01T14:03:55;22.90;99.90
13229;DHT22;6680;53.220;10.402;2022-08-01T14:06:22;22.90;99.90
13229;DHT22;6680;53.220;10.402;2022-08-01T14:08:48;23.00;99.90
13229;DHT22;6680;53.220;10.402;2022-08-01T14:11:16;23.40;99.90
13229;DHT22;6680;53.220;10.402;2022-08-01T14:13:43;23.30;99.90
13229;DHT22;6680;53.220;10.402;2022-08-01T14:16:09;23.30;99.90
13229;DHT22;6680;53.220;10.402;2022-08-01T14:18:37;23.20;99.90
13229;DHT22;6680;53.220;10.402;2022-08-01T14:21:04;23.10;99.90
13229;DHT22;6680;53.220;10.402;2022-08-01T14:23:31;23.20;99.90
13229;DHT22;6680;53.220;10.402;2022-08-01T14:25:57;23.30;99.90
13229;DHT22;6680;53.220;10.402;2022-08-01T14:28:24;23.20;99.90
13229;DHT22;6680;53.220;10.402;2022-08-01T14:30:53;23.20;99.90
13229;DHT22;6680;53.220;10.402;2022-08-01T14:33:21;23.10;99.90
13229;DHT22;6680;53.220;10.402;2022-08-01T14:35:49;23.00;99.90
13229;DHT22;6680;53.220;10.402;2022-08-01T14:38:16;23.00;99.90
13229;DHT22;6680;53.220;10.402;2022-08-01T14:40:43;23.00;99.90
13229;DHT22;6680;53.220;10.402;2022-08-01T14:43:12;23.00;99.90
13229;DHT22;6680;53.220;10.402;2022-08-01T14:45:39;23.10;99.90
13229;DHT22;6680;53.220;10.402;2022-08-01T14:48:05;23.00;99.90
13229;DHT22;6680;53.220;10.402;2022-08-01T14:50:32;23.00;99.90
13229;DHT22;6680;53.220;10.402;2022-08-01T14:53:00;22.80;99.90
13229;DHT22;6680;53.220;10.402;2022-08-01T14:55:27;22.80;99.90
13229;DHT22;6680;53.220;10.402;2022-08-01T14:57:53;22.90;99.90
13229;DHT22;6680;53.220;10.402;2022-08-01T15:00:20;22.90;99.90
13229;DHT22;6680;53.220;10.402;2022-08-01T15:02:48;22.80;99.90
13229;DHT22;6680;53.220;10.402;2022-08-01T15:05:15;22.70;99.90
13229;DHT22;6680;53.220;10.402;2022-08-01T15:07:41;22.50;99.90
13229;DHT22;6680;53.220;10.402;2022-08-01T15:10:10;22.40;99.90
13229;DHT22;6680;53.220;10.402;2022-08-01T15:12:36;22.30;99.90
13229;DHT22;6680;53.220;10.402;2022-08-01T15:15:04;22.30;99.90
13229;DHT22;6680;53.220;10.402;2022-08-01T15:17:32;22.10;99.90
13229;DHT22;6680;53.220;10.402;2022-08-01T15:20:03;22.00;99.90
13229;DHT22;6680;53.220;10.402;2022-08-01T15:22:31;22.20;99.90
13229;DHT22;6680;53.220;10.402;2022-08-01T15:24:59;22.20;99.90
13229;DHT22;6680;53.220;10.402;2022-08-01T15:27:27;22.20;99.90
13229;DHT22;6680;53.220;10.402;2022-08-01T15:29:55;22.10;99.90
13229;DHT22;6680;53.220;10.402;2022-08-01T15:32:22;22.10;99.90
13229;DHT22;6680;53.220;10.402;2022-08-01T15:34:49;22.00;99.90
13229;DHT22;6680;53.220;10.402;2022-08-01T15:37:17;22.00;99.90
13229;DHT22;6680;53.220;10.402;2022-08-01T15:39:44;21.90;99.90
13229;DHT22;6680;53.220;10.402;2022-08-01T15:42:12;22.00;99.90
13229;DHT22;6680;53.220;10.402;2022-08-01T15:44:40;22.00;99.90
13229;DHT22;6680;53.220;10.402;2022-08-01T15:47:08;22.00;99.90